Time;durP1;ratioP1;P1;durP2;ratioP2;P2;SDS_P1;SDS_P2;PMS_P1;PMS_P2;Temp;Humidity;BMP_temperature;BMP_pressure;BME280_temperature;BME280_humidity;BME280_pressure;Samples;Min_cycle;Max_cycle;Signal;HPM_P1;HPM_P2
2021/07/12 00:02:55;;;;;;;14.27;10.48;;;;;;;15.85;82.94;101367.13;10546295;28;20051;-58
2021/07/12 00:07:57;;;;;;;13.15;11.90;;;;;;;15.67;83.57;101368.38;10545809;28;20044;-60
2021/07/12 00:12:59;;;;;;;11.65;10.52;;;;;;;15.65;83.18;101372.94;10545777;28;20048;-58
2021/07/12 00:18:02;;;;;;;12.88;11.20;;;;;;;15.55;84.14;101370.94;10543923;28;20427;-59
2021/07/12 00:23:04;;;;;;;14.15;12.68;;;;;;;15.62;83.33;101374.00;10544988;28;20056;-59
2021/07/12 00:28:07;;;;;;;14.85;12.93;;;;;;;15.66;83.87;101364.91;10544685;28;20048;-59
2021/07/12 00:33:09;;;;;;;14.50;13.05;;;;;;;15.75;84.04;101360.78;10544757;28;20080;-59
2021/07/12 00:38:11;;;;;;;14.98;13.38;;;;;;;15.81;83.67;101352.47;10544413;28;20051;-58
2021/07/12 00:43:14;;;;;;;16.75;13.63;;;;;;;15.80;83.84;101342.84;10544736;28;20055;-59
2021/07/12 00:48:16;;;;;;;16.52;14.73;;;;;;;15.93;82.61;101350.75;10543969;28;20051;-59
2021/07/12 00:53:19;;;;;;;15.38;13.77;;;;;;;15.90;82.50;101341.25;10543106;28;20055;-60
2021/07/12 00:58:26;;;;;;;17.08;14.90;;;;;;;15.78;83.26;101331.56;10543792;28;20050;-59
2021/07/12 01:03:29;;;;;;;16.17;14.48;;;;;;;15.79;83.64;101320.06;10542770;28;20044;-61
2021/07/12 01:08:31;;;;;;;16.90;14.70;;;;;;;15.82;83.24;101317.19;10543639;28;20051;-59
2021/07/12 01:13:37;;;;;;;19.17;17.13;;;;;;;15.77;83.44;101317.50;10543433;28;20044;-60
2021/07/12 01:18:46;;;;;;;21.40;18.52;;;;;;;15.61;84.77;101315.06;10542944;28;20435;-60
2021/07/12 01:24:21;;;;;;;22.70;18.33;;;;;;;15.66;84.55;101308.63;10541606;28;20412;-59
2021/07/12 01:30:01;;;;;;;21.15;18.17;;;;;;;15.69;84.12;101311.91;10542560;28;20044;-59
2021/07/12 01:35:08;;;;;;;20.35;18.23;;;;;;;15.59;84.41;101303.78;10541708;28;20054;-60
2021/07/12 01:40:15;;;;;;;27.23;20.05;;;;;;;15.47;84.96;101298.53;10541430;28;20407;-60
2021/07/12 01:45:18;;;;;;;23.30;18.23;;;;;;;15.64;84.24;101294.72;10542067;28;20039;-59
2021/07/12 01:50:30;;;;;;;24.45;21.85;;;;;;;15.65;83.47;101291.97;10540193;28;20044;-59
2021/07/12 01:55:51;;;;;;;36.00;25.10;;;;;;;15.62;84.32;101289.53;10541201;28;20048;-60
2021/07/12 02:00:54;;;;;;;28.92;23.60;;;;;;;15.41;84.55;101287.44;10541442;28;20130;-60
2021/07/12 02:06:02;;;;;;;27.77;22.35;;;;;;;15.45;84.72;101285.47;10540477;28;20146;-60
2021/07/12 02:11:05;;;;;;;34.20;27.73;;;;;;;15.51;84.48;101295.56;10540094;28;20480;-60
2021/07/12 02:16:08;;;;;;;41.70;32.20;;;;;;;15.58;84.89;101294.19;10540593;28;20419;-60
2021/07/12 02:21:12;;;;;;;33.83;27.50;;;;;;;15.55;84.83;101289.13;10539490;28;20054;-58
2021/07/12 02:26:15;;;;;;;41.25;31.60;;;;;;;15.48;85.19;101284.38;10540547;28;20052;-58
2021/07/12 02:31:18;;;;;;;39.55;31.33;;;;;;;15.48;84.51;101266.75;10522337;28;20126;-58
2021/07/12 02:36:20;;;;;;;45.88;32.90;;;;;;;15.48;84.35;101261.47;10539222;28;20131;-58
2021/07/12 02:41:27;;;;;;;35.42;28.52;;;;;;;15.39;84.63;101262.97;10538631;28;20055;-58
2021/07/12 02:46:31;;;;;;;41.60;32.78;;;;;;;15.40;84.55;101258.56;10539572;28;20050;-59
2021/07/12 02:51:57;;;;;;;34.17;28.83;;;;;;;15.35;84.95;101258.88;10538866;28;20101;-59
2021/07/12 02:57:00;;;;;;;41.05;31.70;;;;;;;15.20;85.02;101252.88;10528997;28;20051;-59
2021/07/12 03:02:02;;;;;;;47.13;35.33;;;;;;;15.10;85.32;101251.81;10540239;28;20051;-59
2021/07/12 03:07:22;;;;;;;36.97;29.52;;;;;;;15.22;84.97;101248.31;10539449;28;20049;-59
2021/07/12 03:12:41;;;;;;;39.88;32.30;;;;;;;15.09;85.64;101233.47;10538700;28;20044;-59
2021/07/12 03:17:54;;;;;;;34.00;29.50;;;;;;;15.17;84.96;101233.78;10538657;28;20056;-59
2021/07/12 03:22:59;;;;;;;41.38;32.42;;;;;;;15.12;84.89;101228.81;10539031;28;20479;-59
2021/07/12 03:28:03;;;;;;;37.90;30.42;;;;;;;15.13;84.83;101219.97;10521788;28;20059;-59
2021/07/12 03:33:06;;;;;;;37.38;30.35;;;;;;;14.99;85.11;101223.53;10537730;28;20052;-59
2021/07/12 03:38:10;;;;;;;37.60;29.58;;;;;;;15.01;84.77;101226.94;10538055;28;20040;-59
2021/07/12 03:43:13;;;;;;;43.25;33.53;;;;;;;15.01;85.00;101226.06;10537791;28;20054;-59
2021/07/12 03:48:16;;;;;;;43.83;31.27;;;;;;;15.03;85.38;101222.41;10538015;28;20048;-59
2021/07/12 03:53:18;;;;;;;43.53;34.33;;;;;;;15.00;85.26;101221.78;10538794;28;20056;-59
2021/07/12 03:58:21;;;;;;;43.42;35.40;;;;;;;15.11;85.26;101216.56;10541845;28;20044;-59
2021/07/12 04:03:23;;;;;;;49.25;37.55;;;;;;;15.15;85.43;101202.22;10546411;28;20419;-59
2021/07/12 04:08:25;;;;;;;38.03;27.92;;;;;;;15.39;83.97;101201.44;10545693;28;20496;-59
2021/07/12 04:13:28;;;;;;;49.88;37.47;;;;;;;15.38;84.88;101200.63;10545961;28;20441;-59
2021/07/12 04:18:30;;;;;;;35.80;28.65;;;;;;;15.30;84.85;101210.00;10545259;28;20040;-59
2021/07/12 04:23:33;;;;;;;48.05;37.17;;;;;;;15.32;84.92;101210.75;10545626;28;20055;-60
2021/07/12 04:28:35;;;;;;;50.67;37.13;;;;;;;15.59;84.50;101219.31;10544754;28;20546;-59
2021/07/12 04:33:37;;;;;;;50.92;37.40;;;;;;;15.63;84.41;101213.84;10544501;28;20059;-59
2021/07/12 04:38:40;;;;;;;44.70;34.67;;;;;;;15.65;84.84;101212.78;10544699;28;20043;-59
2021/07/12 04:43:42;;;;;;;37.05;32.00;;;;;;;15.80;83.65;101210.84;10544512;28;20048;-59
2021/07/12 04:48:44;;;;;;;50.00;37.85;;;;;;;15.97;84.44;101213.09;10544186;28;20044;-59
2021/07/12 04:53:47;;;;;;;45.92;37.58;;;;;;;16.08;84.48;101214.94;10544018;28;20055;-59
2021/07/12 04:58:49;;;;;;;47.90;37.28;;;;;;;16.20;85.35;101212.34;10544094;28;20059;-59
2021/07/12 05:03:52;;;;;;;57.20;41.97;;;;;;;16.39;85.16;101201.22;10543932;28;20048;-59
2021/07/12 05:08:55;;;;;;;50.38;39.35;;;;;;;16.42;85.56;101201.00;10542216;28;20484;-59
2021/07/12 05:13:58;;;;;;;64.68;46.50;;;;;;;16.43;86.05;101195.59;10543047;28;20043;-59
2021/07/12 05:19:00;;;;;;;47.58;37.67;;;;;;;16.82;85.23;101190.84;10541908;28;20515;-59
2021/07/12 05:24:03;;;;;;;47.10;37.08;;;;;;;16.92;84.89;101195.47;10542556;28;20051;-59
2021/07/12 05:29:05;;;;;;;46.55;37.00;;;;;;;17.09;84.52;101184.41;10541754;28;20064;-59
2021/07/12 05:34:08;;;;;;;44.05;35.55;;;;;;;17.05;85.23;101175.03;10541810;28;20048;-59
2021/07/12 05:39:10;;;;;;;51.88;39.45;;;;;;;16.99;85.49;101171.06;10541634;28;20071;-59
2021/07/12 05:44:12;;;;;;;47.85;39.88;;;;;;;17.22;84.88;101171.06;10541622;28;20048;-59
2021/07/12 05:49:15;;;;;;;39.95;34.92;;;;;;;17.38;84.13;101153.00;10541626;28;20500;-60
2021/07/12 05:54:17;;;;;;;53.78;44.08;;;;;;;17.40;84.78;101158.13;10541657;28;20069;-59
2021/07/12 05:59:19;;;;;;;59.05;52.17;;;;;;;17.21;85.12;101159.59;10541672;28;20040;-59
2021/07/12 06:04:24;;;;;;;50.30;45.00;;;;;;;17.36;84.39;101157.53;10541023;28;20079;-59
2021/07/12 06:09:27;;;;;;;52.65;46.92;;;;;;;17.45;84.29;101161.28;10541454;28;20055;-59
2021/07/12 06:14:29;;;;;;;47.20;42.00;;;;;;;17.84;83.09;101156.34;10541174;28;20044;-60
2021/07/12 06:19:31;;;;;;;52.58;45.88;;;;;;;17.93;83.25;101168.84;10540330;28;20059;-59
2021/07/12 06:24:34;;;;;;;51.40;45.92;;;;;;;17.90;82.78;101163.78;10541398;28;20058;-59
2021/07/12 06:29:36;;;;;;;54.85;46.60;;;;;;;18.22;82.80;101165.56;10540288;28;20543;-59
2021/07/12 06:34:38;;;;;;;45.47;40.63;;;;;;;18.26;81.91;101164.34;10540006;28;20040;-59
2021/07/12 06:39:41;;;;;;;45.25;40.42;;;;;;;18.18;81.23;101165.00;10540312;28;20048;-59
2021/07/12 06:44:43;;;;;;;39.78;35.75;;;;;;;18.23;81.14;101166.44;10540275;28;20052;-59
2021/07/12 06:49:45;;;;;;;38.45;34.45;;;;;;;18.18;81.65;101156.22;10540721;28;20052;-59
2021/07/12 06:54:48;;;;;;;37.03;33.10;;;;;;;18.24;81.07;101161.00;10539617;28;20051;-59
2021/07/12 06:59:51;;;;;;;40.50;36.17;;;;;;;18.36;81.39;101153.81;10539011;28;20044;-59
2021/07/12 07:04:54;;;;;;;32.97;29.48;;;;;;;18.62;79.62;101161.34;10540628;28;20060;-59
2021/07/12 07:09:56;;;;;;;34.33;30.73;;;;;;;18.87;79.08;101147.69;10539582;28;20051;-59
2021/07/12 07:14:58;;;;;;;30.23;26.98;;;;;;;19.47;76.54;101141.56;10539856;28;20051;-59
2021/07/12 07:20:01;;;;;;;27.50;24.50;;;;;;;19.93;75.60;101142.72;10539174;28;20040;-59
2021/07/12 07:25:04;;;;;;;24.35;21.85;;;;;;;20.11;73.58;101144.69;10539428;28;20052;-59
2021/07/12 07:30:14;;;;;;;22.95;19.38;;;;;;;20.15;71.70;101143.41;10539232;28;20048;-60
2021/07/12 07:35:17;;;;;;;21.55;18.05;;;;;;;20.78;71.31;101146.34;10545414;28;20055;-60
2021/07/12 07:40:20;;;;;;;20.73;18.40;;;;;;;21.06;71.79;101138.34;10547209;28;20392;-60
2021/07/12 07:45:23;;;;;;;21.95;17.75;;;;;;;21.01;69.99;101127.31;10547289;28;20041;-60
2021/07/12 07:50:25;;;;;;;19.08;17.05;;;;;;;21.08;71.01;101108.94;10546527;28;20054;-59
2021/07/12 07:55:28;;;;;;;19.65;17.35;;;;;;;21.44;68.60;101101.00;10546448;28;20066;-59
2021/07/12 08:00:30;;;;;;;13.77;12.32;;;;;;;21.98;67.09;101088.47;10546823;28;20044;-59
2021/07/12 08:05:33;;;;;;;17.95;13.20;;;;;;;21.87;66.80;101094.06;10546042;28;20048;-59
2021/07/12 08:10:36;;;;;;;11.10;9.88;;;;;;;22.67;66.34;101090.41;10545110;28;20044;-60
2021/07/12 08:15:39;;;;;;;11.65;9.07;;;;;;;22.21;61.39;101102.16;10545764;28;20412;-59
2021/07/12 08:20:45;;;;;;;9.98;9.07;;;;;;;22.84;60.90;101100.16;10545535;28;20052;-60
2021/07/12 08:25:47;;;;;;;9.13;7.80;;;;;;;23.69;62.42;101089.31;10545661;28;20059;-60
2021/07/12 08:30:49;;;;;;;6.47;5.80;;;;;;;23.95;59.61;101087.50;10545056;28;20134;-60
2021/07/12 08:35:52;;;;;;;8.95;8.10;;;;;;;23.94;57.69;101073.31;10544602;28;20121;-59
2021/07/12 08:40:58;;;;;;;9.25;7.90;;;;;;;23.73;56.97;101071.13;10544626;28;20408;-60
2021/07/12 08:46:00;;;;;;;6.70;6.10;;;;;;;24.54;58.11;101071.13;10544676;28;20048;-60
2021/07/12 08:51:03;;;;;;;7.22;6.53;;;;;;;24.33;54.85;101069.88;10544281;28;20058;-60
2021/07/12 08:56:05;;;;;;;5.65;5.15;;;;;;;24.91;55.32;101062.47;10544084;28;20044;-59
2021/07/12 09:01:09;;;;;;;7.18;6.47;;;;;;;24.70;51.89;101052.38;10542686;28;20062;-59
2021/07/12 09:06:14;;;;;;;7.25;6.55;;;;;;;25.61;52.12;101038.41;10543551;28;20071;-60
2021/07/12 09:11:25;;;;;;;13.45;8.00;;;;;;;24.94;52.50;101040.69;10544012;28;20055;-60
2021/07/12 09:16:32;;;;;;;12.55;9.90;;;;;;;24.56;53.27;101047.75;10543913;28;20048;-59
2021/07/12 09:21:35;;;;;;;9.73;7.78;;;;;;;25.87;52.40;101036.16;10542931;28;20047;-58
2021/07/12 09:26:42;;;;;;;10.23;9.32;;;;;;;24.15;53.47;101043.34;10542843;28;20059;-60
2021/07/12 09:31:44;;;;;;;7.63;6.93;;;;;;;25.87;52.03;101028.09;10543111;28;20071;-60
2021/07/12 09:36:47;;;;;;;7.05;6.45;;;;;;;25.98;53.72;101039.41;10541272;28;20127;-59
2021/07/12 09:41:52;;;;;;;6.28;5.55;;;;;;;24.68;53.93;101038.34;10542213;28;20052;-59
2021/07/12 09:46:57;;;;;;;8.82;7.03;;;;;;;25.46;50.76;101017.75;10542366;28;20052;-60
2021/07/12 09:52:01;;;;;;;9.55;8.40;;;;;;;25.07;51.87;101010.66;10541529;28;20418;-60
2021/07/12 09:57:12;;;;;;;8.15;7.40;;;;;;;25.30;53.63;101009.81;10541016;28;20048;-60
2021/07/12 10:02:16;;;;;;;11.25;10.13;;;;;;;26.31;52.31;101002.31;10541678;28;20044;-60
2021/07/12 10:07:19;;;;;;;12.52;11.45;;;;;;;25.49;52.71;100997.78;10540077;28;20412;-60
2021/07/12 10:12:21;;;;;;;10.02;8.75;;;;;;;26.90;52.76;100992.47;10541667;28;20048;-61
2021/07/12 10:17:24;;;;;;;12.85;10.23;;;;;;;26.34;51.81;100996.56;10540802;28;20590;-61
2021/07/12 10:22:37;;;;;;;9.77;8.88;;;;;;;28.08;48.61;100990.16;10540958;28;20058;-60
2021/07/12 10:27:50;;;;;;;10.95;9.70;;;;;;;26.24;52.00;100982.59;10540741;28;20055;-61
2021/07/12 10:33:03;;;;;;;12.15;10.02;;;;;;;27.62;46.24;100975.31;10540677;28;20044;-60
2021/07/12 10:38:06;;;;;;;10.38;9.32;;;;;;;27.03;44.48;100976.47;10539145;28;20048;-60
2021/07/12 10:43:09;;;;;;;7.32;6.57;;;;;;;28.42;46.42;100980.34;10540076;28;20412;-60
2021/07/12 10:48:13;;;;;;;7.60;5.40;;;;;;;28.26;48.00;100985.06;10522270;28;20048;-61
2021/07/12 10:53:16;;;;;;;6.35;5.28;;;;;;;28.16;43.70;100982.72;10539753;28;20044;-60
2021/07/12 10:58:21;;;;;;;4.60;4.10;;;;;;;29.45;45.40;100972.03;10539811;28;20056;-61
2021/07/12 11:03:37;;;;;;;7.03;4.72;;;;;;;27.98;43.17;100974.34;10540033;28;20052;-60
2021/07/12 11:08:51;;;;;;;6.78;4.55;;;;;;;27.23;43.14;100973.97;10542577;28;20040;-60
2021/07/12 11:13:57;;;;;;;4.90;4.25;;;;;;;29.17;42.58;100961.47;10548666;28;20048;-60
2021/07/12 11:19:24;;;;;;;5.70;4.45;;;;;;;27.88;44.08;100952.34;10547154;28;20040;-60
2021/07/12 11:24:27;;;;;;;6.20;4.35;;;;;;;25.76;47.78;100953.44;10547627;28;20499;-60
2021/07/12 11:29:37;;;;;;;5.65;3.53;;;;;;;26.62;48.19;100958.28;10547343;28;20404;-61
2021/07/12 11:34:49;;;;;;;5.68;3.47;;;;;;;26.13;47.31;100965.94;10547697;28;20044;-61
2021/07/12 11:39:54;;;;;;;5.47;4.25;;;;;;;26.18;48.78;100960.03;10547353;28;20051;-60
2021/07/12 11:45:01;;;;;;;6.07;3.38;;;;;;;26.57;49.11;100956.16;10546328;28;20051;-60
2021/07/12 11:50:08;;;;;;;5.20;3.70;;;;;;;27.86;47.43;100954.41;10546982;28;20040;-61
2021/07/12 11:55:21;;;;;;;5.88;5.35;;;;;;;26.99;46.74;100948.34;10546218;28;20044;-61
2021/07/12 12:00:24;;;;;;;7.68;6.25;;;;;;;25.95;49.19;100952.91;10546640;28;20048;-60
2021/07/12 12:05:28;;;;;;;6.13;5.63;;;;;;;26.19;48.65;100958.19;10546627;28;20063;-60
2021/07/12 12:10:39;;;;;;;6.57;6.00;;;;;;;25.79;51.18;100955.78;10546347;28;20048;-60
2021/07/12 12:15:43;;;;;;;6.20;4.60;;;;;;;25.89;51.66;100953.66;10544891;28;20055;-61
2021/07/12 12:20:50;;;;;;;10.43;5.82;;;;;;;25.20;51.97;100951.09;10544648;28;20446;-61
2021/07/12 12:26:13;;;;;;;6.13;5.10;;;;;;;25.47;54.06;100946.19;10545101;28;20389;-60
2021/07/12 12:31:17;;;;;;;5.57;5.05;;;;;;;25.37;51.42;100931.22;10545266;28;20052;-60
2021/07/12 12:36:22;;;;;;;4.57;4.18;;;;;;;26.82;49.86;100929.78;10544890;28;20051;-60
2021/07/12 12:41:28;;;;;;;6.53;4.35;;;;;;;26.57;50.72;100926.63;10544751;28;20044;-61
2021/07/12 12:46:32;;;;;;;5.43;4.80;;;;;;;26.64;51.14;100924.84;10544803;28;20052;-60
2021/07/12 12:51:34;;;;;;;5.55;4.75;;;;;;;25.82;51.09;100927.75;10544837;28;20040;-61
2021/07/12 12:56:58;;;;;;;5.50;4.80;;;;;;;25.64;49.76;100930.78;10544347;28;20055;-61
2021/07/12 13:02:03;;;;;;;5.60;4.70;;;;;;;25.28;50.66;100924.25;10544203;28;20048;-61
2021/07/12 13:07:05;;;;;;;4.32;3.58;;;;;;;25.18;52.62;100911.13;10543607;28;20044;-60
2021/07/12 13:12:15;;;;;;;16.17;5.00;;;;;;;25.48;52.42;100911.16;10543274;28;20127;-61
2021/07/12 13:17:26;;;;;;;4.32;4.03;;;;;;;25.08;52.61;100907.00;10543540;28;20044;-60
2021/07/12 13:22:31;;;;;;;6.53;4.10;;;;;;;24.84;54.04;100898.16;10542891;28;20048;-61
2021/07/12 13:27:35;;;;;;;6.93;4.30;;;;;;;25.08;54.87;100898.97;10542999;28;20503;-60
2021/07/12 13:32:38;;;;;;;20.50;7.43;;;;;;;24.66;56.57;100893.09;10541694;28;20052;-61
2021/07/12 13:37:41;;;;;;;5.93;4.85;;;;;;;24.66;56.81;100888.59;10542265;28;20415;-61
2021/07/12 13:42:44;;;;;;;5.82;4.90;;;;;;;25.12;56.54;100886.91;10540963;28;20048;-60
2021/07/12 13:47:47;;;;;;;7.53;5.20;;;;;;;24.98;57.34;100877.78;10542168;28;20499;-60
2021/07/12 13:52:50;;;;;;;6.45;5.40;;;;;;;24.63;56.29;100872.91;10541230;28;20050;-62
2021/07/12 13:57:54;;;;;;;5.85;5.35;;;;;;;24.64;58.05;100871.03;10540089;28;20511;-60
2021/07/12 14:02:57;;;;;;;8.13;5.35;;;;;;;24.58;58.13;100877.94;10540501;28;20052;-61
2021/07/12 14:08:00;;;;;;;4.88;4.43;;;;;;;25.00;57.17;100867.75;10541058;28;20044;-60
2021/07/12 14:13:03;;;;;;;5.85;4.95;;;;;;;25.13;58.65;100859.09;10540935;28;20044;-60
2021/07/12 14:18:06;;;;;;;8.73;7.32;;;;;;;24.73;57.19;100867.31;10541001;28;20043;-61
2021/07/12 14:23:09;;;;;;;6.78;5.38;;;;;;;24.88;59.69;100856.66;10540725;28;20059;-60
2021/07/12 14:28:11;;;;;;;6.10;5.50;;;;;;;25.27;58.74;100850.28;10540799;28;20066;-61
2021/07/12 14:33:15;;;;;;;6.45;5.22;;;;;;;25.52;58.49;100840.13;10539230;28;20052;-61
2021/07/12 14:38:17;;;;;;;6.75;5.78;;;;;;;25.32;58.55;100839.84;10540118;28;20488;-61
2021/07/12 14:43:20;;;;;;;6.82;6.22;;;;;;;25.00;56.16;100843.66;10540014;28;20044;-61
2021/07/12 14:48:22;;;;;;;7.53;6.75;;;;;;;25.06;58.62;100842.91;10539842;28;20506;-62
2021/07/12 14:53:24;;;;;;;7.40;6.78;;;;;;;24.93;59.27;100842.69;10539042;28;20051;-60
2021/07/12 14:58:27;;;;;;;8.68;7.28;;;;;;;24.97;58.48;100834.13;10539789;28;20059;-61
2021/07/12 15:03:30;;;;;;;9.13;8.25;;;;;;;24.87;58.13;100854.16;10540213;28;20066;-62
2021/07/12 15:08:32;;;;;;;9.63;6.82;;;;;;;25.03;58.68;100851.28;10540249;28;20056;-61
2021/07/12 15:13:35;;;;;;;8.02;6.28;;;;;;;25.21;58.77;100850.97;10539952;28;20048;-62
2021/07/12 15:18:39;;;;;;;7.97;7.15;;;;;;;24.92;59.46;100857.13;10539610;28;20122;-61
2021/07/12 15:23:41;;;;;;;10.98;6.93;;;;;;;24.29;60.62;100858.03;10539447;28;20048;-61
2021/07/12 15:28:43;;;;;;;8.82;6.18;;;;;;;24.60;61.53;100851.00;10539266;28;20495;-61
2021/07/12 15:33:46;;;;;;;7.57;6.57;;;;;;;24.29;62.78;100851.84;10539034;28;20071;-61
2021/07/12 15:38:48;;;;;;;8.25;6.70;;;;;;;24.39;62.60;100855.13;10539571;28;20051;-60
2021/07/12 15:43:51;;;;;;;7.95;7.15;;;;;;;24.26;65.09;100857.56;10539136;28;20052;-61
2021/07/12 15:48:53;;;;;;;7.35;6.85;;;;;;;24.12;64.40;100853.78;10538804;28;20040;-62
2021/07/12 15:53:56;;;;;;;7.75;7.05;;;;;;;24.01;64.48;100849.66;10541528;28;20395;-60
2021/07/12 15:58:58;;;;;;;7.18;6.53;;;;;;;24.34;64.25;100835.25;10546194;28;20051;-61
2021/07/12 16:04:00;;;;;;;9.02;8.00;;;;;;;24.04;66.61;100838.63;10546162;28;20055;-62
2021/07/12 16:09:03;;;;;;;7.97;7.20;;;;;;;23.80;68.82;100839.53;10546129;28;20101;-61
2021/07/12 16:14:06;;;;;;;8.65;7.82;;;;;;;23.50;69.44;100844.69;10544703;28;20044;-60
2021/07/12 16:19:09;;;;;;;9.20;7.10;;;;;;;23.65;69.91;100846.63;10545491;28;20055;-60
2021/07/12 16:24:11;;;;;;;8.05;7.35;;;;;;;23.44;70.45;100848.03;10545480;28;20052;-61
2021/07/12 16:29:14;;;;;;;8.63;7.90;;;;;;;23.17;71.52;100847.41;10545410;28;20044;-60
2021/07/12 16:34:16;;;;;;;9.90;8.13;;;;;;;23.03;72.55;100847.22;10545009;28;20044;-60
2021/07/12 16:39:19;;;;;;;10.27;8.55;;;;;;;22.71;74.30;100847.09;10544920;28;20047;-60
2021/07/12 16:44:21;;;;;;;13.52;9.57;;;;;;;22.79;70.64;100838.22;10543445;28;20496;-61
2021/07/12 16:49:25;;;;;;;10.38;9.40;;;;;;;22.71;71.41;100843.56;10544222;28;20484;-61
2021/07/12 16:54:27;;;;;;;10.60;9.68;;;;;;;22.27;72.96;100848.16;10544332;28;20126;-60
2021/07/12 16:59:29;;;;;;;10.23;9.18;;;;;;;22.04;71.44;100863.06;10543653;28;20051;-61
2021/07/12 17:04:32;;;;;;;8.27;6.97;;;;;;;21.86;68.41;100857.88;10543965;28;20055;-60
2021/07/12 17:09:35;;;;;;;8.85;6.75;;;;;;;21.49;69.27;100883.81;10543321;28;20480;-60
2021/07/12 17:14:38;;;;;;;7.47;6.78;;;;;;;21.31;71.63;100877.69;10543260;28;20094;-60
2021/07/12 17:20:01;;;;;;;7.63;6.93;;;;;;;21.60;72.06;100874.75;10543007;28;20442;-61
2021/07/12 17:25:04;;;;;;;8.45;6.90;;;;;;;21.54;72.47;100859.38;10525168;28;20404;-60
2021/07/12 17:30:08;;;;;;;7.30;6.47;;;;;;;21.13;73.87;100873.25;10542883;28;20058;-60
2021/07/12 17:35:12;;;;;;;5.85;5.22;;;;;;;21.21;73.51;100872.44;10541213;28;20388;-60
2021/07/12 17:40:15;;;;;;;7.30;6.65;;;;;;;21.29;74.75;100874.34;10542461;28;20048;-61
2021/07/12 17:45:22;;;;;;;10.68;6.80;;;;;;;21.26;74.74;100864.81;10542534;28;20052;-61
2021/07/12 17:50:24;;;;;;;6.97;6.40;;;;;;;21.24;75.82;100869.47;10542601;28;20047;-60
2021/07/12 17:55:26;;;;;;;7.40;6.80;;;;;;;21.45;75.21;100877.13;10541775;28;20051;-60
2021/07/12 18:00:29;;;;;;;7.28;6.68;;;;;;;21.66;74.99;100868.75;10542095;28;20063;-60
2021/07/12 18:05:31;;;;;;;7.82;7.00;;;;;;;21.60;75.47;100882.72;10541411;28;20079;-60
2021/07/12 18:10:34;;;;;;;9.85;7.68;;;;;;;21.55;76.37;100874.34;10540133;28;20044;-60
2021/07/12 18:15:36;;;;;;;8.15;7.32;;;;;;;21.68;74.38;100873.94;10540738;28;20048;-60
2021/07/12 18:20:39;;;;;;;7.95;7.15;;;;;;;21.64;74.38;100869.94;10540821;28;20071;-60
2021/07/12 18:25:45;;;;;;;9.00;7.15;;;;;;;21.64;74.63;100880.59;10539611;28;20048;-60
2021/07/12 18:30:48;;;;;;;7.22;6.53;;;;;;;21.70;74.91;100858.63;10540947;28;20058;-60
2021/07/12 18:35:50;;;;;;;8.05;7.25;;;;;;;21.80;73.49;100858.50;10538869;28;20487;-60
2021/07/12 18:40:53;;;;;;;8.48;7.07;;;;;;;21.86;73.89;100858.69;10540155;28;20472;-59
2021/07/12 18:45:55;;;;;;;7.57;6.88;;;;;;;21.55;74.44;100865.53;10540373;28;20048;-60
2021/07/12 18:50:58;;;;;;;8.25;7.55;;;;;;;21.42;75.38;100864.13;10539963;28;20515;-60
2021/07/12 18:56:00;;;;;;;8.95;7.78;;;;;;;21.33;76.20;100868.56;10539649;28;20044;-61
2021/07/12 19:01:04;;;;;;;7.38;6.70;;;;;;;21.37;76.22;100865.56;10540198;28;20055;-60
2021/07/12 19:06:07;;;;;;;9.82;7.10;;;;;;;21.39;74.95;100866.25;10538404;28;20090;-60
2021/07/12 19:11:09;;;;;;;6.90;6.20;;;;;;;21.14;76.08;100860.75;10539884;28;20059;-60
2021/07/12 19:16:11;;;;;;;6.30;5.80;;;;;;;20.95;76.54;100867.94;10539022;28;20476;-60
2021/07/12 19:21:14;;;;;;;7.72;6.63;;;;;;;21.02;76.61;100870.81;10538665;28;20384;-61
2021/07/12 19:26:16;;;;;;;7.97;7.18;;;;;;;20.76;77.67;100876.09;10538668;28;20056;-60
2021/07/12 19:31:20;;;;;;;7.53;6.55;;;;;;;20.38;78.51;100876.19;10545745;28;20047;-60
2021/07/12 19:36:23;;;;;;;7.47;6.88;;;;;;;20.38;78.37;100891.31;10547096;28;20070;-60
2021/07/12 19:41:26;;;;;;;6.65;5.70;;;;;;;20.25;78.45;100891.66;10546637;28;20051;-60
2021/07/12 19:46:28;;;;;;;6.97;6.28;;;;;;;20.07;78.37;100883.66;10546797;28;20059;-60
2021/07/12 19:51:31;;;;;;;11.32;7.00;;;;;;;19.82;79.30;100887.81;10546613;28;20051;-60
2021/07/12 19:56:33;;;;;;;8.05;6.90;;;;;;;19.91;78.88;100883.47;10546068;28;20044;-60
2021/07/12 20:01:35;;;;;;;6.68;6.07;;;;;;;20.08;77.86;100895.97;10545812;28;20048;-60
2021/07/12 20:06:39;;;;;;;9.35;7.45;;;;;;;19.59;79.09;100908.56;10545908;28;20048;-60
2021/07/12 20:11:41;;;;;;;7.78;6.10;;;;;;;19.76;78.67;100910.50;10545890;28;20051;-60
2021/07/12 20:16:46;;;;;;;7.95;7.00;;;;;;;19.47;79.91;100911.38;10545796;28;20044;-59
2021/07/12 20:21:49;;;;;;;7.53;6.80;;;;;;;19.72;78.10;100914.41;10546243;28;20050;-59
2021/07/12 20:26:52;;;;;;;7.00;5.88;;;;;;;19.58;78.78;100917.50;10545752;28;20145;-60
2021/07/12 20:31:55;;;;;;;8.63;7.43;;;;;;;19.25;79.82;100917.03;10545046;28;20048;-60
2021/07/12 20:36:58;;;;;;;7.75;7.13;;;;;;;19.33;79.27;100924.28;10544974;28;20089;-59
2021/07/12 20:42:01;;;;;;;7.88;6.85;;;;;;;19.24;79.79;100932.09;10544418;28;20055;-60
2021/07/12 20:47:03;;;;;;;6.53;5.90;;;;;;;19.40;78.27;100922.72;10526238;28;20499;-60
2021/07/12 20:52:06;;;;;;;8.45;7.57;;;;;;;18.93;80.19;100926.94;10543309;28;20051;-60
2021/07/12 20:57:08;;;;;;;7.05;6.55;;;;;;;19.03;79.48;100932.28;10544581;28;20052;-61
2021/07/12 21:02:11;;;;;;;6.72;6.20;;;;;;;19.01;79.57;100933.38;10544337;28;20079;-59
2021/07/12 21:07:13;;;;;;;7.70;6.97;;;;;;;18.94;80.26;100925.13;10543789;28;20055;-59
2021/07/12 21:12:16;;;;;;;7.68;6.93;;;;;;;18.83;79.90;100927.91;10544161;28;20048;-60
2021/07/12 21:17:19;;;;;;;8.13;6.80;;;;;;;18.75;80.42;100933.88;10543376;28;20488;-60
2021/07/12 21:22:22;;;;;;;8.95;7.95;;;;;;;18.73;80.49;100941.97;10543489;28;20044;-60
2021/07/12 21:27:24;;;;;;;9.50;7.93;;;;;;;18.90;79.55;100929.88;10542888;28;20059;-59
2021/07/12 21:32:26;;;;;;;12.40;9.38;;;;;;;18.43;81.16;100913.75;10542678;28;20051;-60
2021/07/12 21:37:29;;;;;;;9.10;8.30;;;;;;;18.50;80.86;100922.81;10542878;28;20059;-59
2021/07/12 21:42:31;;;;;;;11.50;7.93;;;;;;;18.57;80.59;100909.84;10542480;28;20044;-59
2021/07/12 21:47:33;;;;;;;8.95;8.15;;;;;;;18.34;81.68;100906.59;10542152;28;20044;-60
2021/07/12 21:52:36;;;;;;;10.50;8.35;;;;;;;18.41;81.29;100902.44;10541074;28;20403;-59
2021/07/12 21:57:40;;;;;;;11.35;10.07;;;;;;;18.29;81.78;100903.50;10540761;28;20436;-60
2021/07/12 22:02:42;;;;;;;11.43;10.20;;;;;;;18.23;81.66;100904.91;10542017;28;20048;-61
2021/07/12 22:07:46;;;;;;;12.15;10.88;;;;;;;18.37;81.23;100911.63;10541294;28;20430;-61
2021/07/12 22:12:49;;;;;;;12.30;11.02;;;;;;;18.23;81.83;100926.09;10540978;28;20048;-61
2021/07/12 22:17:52;;;;;;;13.25;11.95;;;;;;;18.20;82.24;100931.66;10539632;28;20048;-60
2021/07/12 22:23:04;;;;;;;13.95;12.63;;;;;;;18.11;82.79;100935.97;10541178;28;20056;-59
2021/07/12 22:28:06;;;;;;;;;;;;;;;18.05;82.69;100933.00;10540981;28;20052;-60
2021/07/12 22:33:14;;;;;;;16.98;13.60;;;;;;;18.01;83.22;100938.56;10539476;28;19924;-60
2021/07/12 22:38:17;;;;;;;14.50;13.10;;;;;;;18.38;81.18;100918.63;10539065;28;20048;-60
2021/07/12 22:43:20;;;;;;;15.63;14.00;;;;;;;18.00;83.17;100917.50;10540144;28;20496;-59
2021/07/12 22:48:22;;;;;;;14.98;13.43;;;;;;;18.39;81.04;100917.63;10538785;28;20044;-59
2021/07/12 22:53:25;;;;;;;18.00;13.50;;;;;;;18.00;83.18;100917.50;10540112;28;20052;-59
2021/07/12 22:58:27;;;;;;;12.75;11.52;;;;;;;18.00;82.79;100910.41;10539577;28;20059;-60
2021/07/12 23:03:29;;;;;;;14.70;13.23;;;;;;;18.02;82.65;100902.31;10539831;28;20055;-60